createdAt,value
2023-01-08T00:01:11.967Z,41.17
2023-01-08T00:03:39.474Z,41.31
2023-01-08T00:06:08.812Z,41.25
2023-01-08T00:08:35.378Z,41.30
2023-01-08T00:11:01.984Z,41.21
2023-01-08T00:13:28.559Z,41.35
2023-01-08T00:15:55.336Z,41.23
2023-01-08T00:18:22.161Z,41.33
2023-01-08T00:20:49.042Z,41.26
2023-01-08T00:23:18.033Z,41.35
2023-01-08T00:25:45.440Z,41.17
2023-01-08T00:28:12.113Z,41.49
2023-01-08T00:30:38.817Z,41.32
2023-01-08T00:33:05.359Z,41.30
2023-01-08T00:35:32.007Z,41.31
2023-01-08T00:37:58.689Z,41.29
2023-01-08T00:40:25.195Z,41.14
2023-01-08T00:42:51.673Z,41.29
2023-01-08T00:45:18.130Z,41.21
2023-01-08T00:47:44.730Z,41.28
2023-01-08T00:50:11.447Z,41.20
2023-01-08T00:52:38.377Z,41.07
2023-01-08T00:55:05.671Z,41.15
2023-01-08T00:57:36.516Z,40.99
2023-01-08T01:00:05.161Z,41.16
2023-01-08T01:02:31.646Z,41.09
2023-01-08T01:04:58.151Z,41.15
2023-01-08T01:07:24.660Z,41.41
2023-01-08T01:09:51.182Z,41.19
2023-01-08T01:12:17.714Z,41.16
2023-01-08T01:14:44.410Z,41.20
2023-01-08T01:17:12.154Z,41.27
2023-01-08T01:19:39.271Z,41.22
2023-01-08T01:22:06.177Z,41.17
2023-01-08T01:24:33.013Z,41.24
2023-01-08T01:26:59.537Z,41.29
2023-01-08T01:29:26.429Z,40.93
2023-01-08T01:35:39.936Z,41.30
2023-01-08T01:38:06.423Z,41.20
2023-01-08T01:40:33.026Z,41.32
2023-01-08T01:42:59.559Z,41.27
2023-01-08T01:45:31.224Z,41.28
2023-01-08T01:48:06.657Z,41.23
2023-01-08T01:50:54.178Z,41.14
2023-01-08T01:53:33.994Z,41.21
2023-01-08T01:56:01.689Z,41.15
2023-01-08T01:58:30.747Z,41.21
2023-01-08T02:01:01.552Z,41.22
2023-01-08T02:03:34.081Z,41.25
2023-01-08T02:06:04.092Z,41.29
2023-01-08T02:08:42.761Z,41.15
2023-01-08T02:11:31.233Z,41.29
2023-01-08T02:14:24.958Z,41.28
2023-01-08T02:17:04.309Z,41.09
2023-01-08T02:19:44.836Z,41.24
2023-01-08T02:22:32.611Z,41.12
2023-01-08T02:25:17.812Z,41.19
2023-01-08T02:27:47.104Z,41.12
2023-01-08T02:30:13.755Z,41.35
2023-01-08T02:32:42.746Z,41.23
2023-01-08T02:35:10.850Z,41.03
2023-01-08T02:37:38.310Z,41.06
2023-01-08T02:40:07.874Z,41.24
2023-01-08T02:43:00.030Z,41.12
2023-01-08T02:45:26.502Z,41.03
2023-01-08T02:48:05.140Z,41.01
2023-01-08T02:50:48.686Z,40.99
2023-01-08T02:53:40.902Z,40.85
2023-01-08T02:56:12.345Z,41.16
2023-01-08T02:58:41.593Z,41.06
2023-01-08T03:01:10.512Z,40.98
2023-01-08T03:03:40.708Z,40.99
2023-01-08T03:06:14.190Z,40.94
2023-01-08T03:08:43.614Z,41.01
2023-01-08T03:11:12.716Z,40.98
2023-01-08T03:13:57.350Z,41.01
2023-01-08T03:16:47.779Z,40.74
2023-01-08T03:19:25.550Z,40.94
2023-01-08T03:21:52.702Z,40.95
2023-01-08T03:24:23.755Z,40.93
2023-01-08T03:26:53.578Z,40.87
2023-01-08T03:29:24.355Z,40.89
2023-01-08T03:31:56.125Z,40.90
2023-01-08T03:34:25.353Z,40.89
2023-01-08T03:36:58.105Z,40.92
2023-01-08T03:39:41.730Z,40.87
2023-01-08T03:42:12.128Z,40.87
2023-01-08T03:44:38.855Z,40.71
2023-01-08T03:47:08.119Z,40.91
2023-01-08T03:49:36.214Z,40.77
2023-01-08T03:52:02.702Z,40.89
2023-01-08T03:54:32.219Z,40.77
2023-01-08T03:56:58.823Z,40.79
2023-01-08T03:59:25.769Z,40.76
2023-01-08T04:01:52.362Z,40.97
2023-01-08T04:04:19.152Z,41.02
2023-01-08T04:06:45.854Z,40.76
2023-01-08T04:09:12.424Z,40.80
2023-01-08T04:11:38.962Z,40.99
2023-01-08T04:14:05.673Z,40.76
2023-01-08T04:16:32.266Z,40.85
2023-01-08T04:18:58.911Z,40.93
2023-01-08T04:21:25.398Z,40.65
2023-01-08T04:23:51.871Z,40.82
2023-01-08T04:26:18.371Z,40.72
2023-01-08T04:28:45.523Z,40.71
2023-01-08T04:31:12.323Z,40.90
2023-01-08T04:33:39.035Z,40.83
2023-01-08T04:36:05.931Z,40.71
2023-01-08T04:38:32.507Z,40.79
2023-01-08T04:41:01.167Z,40.63
2023-01-08T04:43:28.648Z,40.75
2023-01-08T04:46:03.957Z,40.72
2023-01-08T04:48:31.242Z,40.84
2023-01-08T04:50:59.074Z,40.80
2023-01-08T04:53:26.540Z,40.76
2023-01-08T04:55:53.093Z,40.76
2023-01-08T04:58:19.677Z,40.68
2023-01-08T05:00:46.386Z,40.75
2023-01-08T05:03:13.020Z,40.81
2023-01-08T05:05:39.564Z,40.83
2023-01-08T05:08:06.114Z,40.59
2023-01-08T05:10:32.626Z,40.61
2023-01-08T05:13:00.047Z,40.70
2023-01-08T05:15:26.739Z,40.75
2023-01-08T05:18:04.075Z,40.57
2023-01-08T05:20:32.375Z,40.85
2023-01-08T05:22:58.934Z,40.81
2023-01-08T05:25:25.525Z,40.91
2023-01-08T05:27:52.774Z,40.89
2023-01-08T05:30:19.333Z,40.90
2023-01-08T05:32:45.827Z,40.83
2023-01-08T05:35:12.435Z,40.75
2023-01-08T05:37:39.335Z,40.87
2023-01-08T05:40:06.169Z,40.97
2023-01-08T05:42:35.272Z,40.86
2023-01-08T05:45:04.017Z,40.94
2023-01-08T05:47:32.007Z,40.93
2023-01-08T05:49:59.084Z,40.83
2023-01-08T05:52:26.097Z,41.05
2023-01-08T05:54:52.627Z,41.05
2023-01-08T05:57:19.212Z,40.96
2023-01-08T05:59:45.688Z,41.02
2023-01-08T06:02:12.522Z,40.93
2023-01-08T06:04:39.207Z,41.00
2023-01-08T06:07:05.772Z,40.89
2023-01-08T06:09:32.255Z,40.90
2023-01-08T06:11:58.748Z,40.78
2023-01-08T06:14:25.291Z,40.91
2023-01-08T06:16:51.804Z,40.93
2023-01-08T06:19:19.114Z,41.00
2023-01-08T06:21:45.701Z,41.04
2023-01-08T06:24:12.280Z,40.95
2023-01-08T06:26:38.833Z,40.78
2023-01-08T06:29:05.354Z,40.90
2023-01-08T06:31:31.959Z,40.93
2023-01-08T06:33:58.526Z,40.91
2023-01-08T06:36:25.130Z,40.67
2023-01-08T06:38:51.713Z,40.72
2023-01-08T06:41:18.180Z,40.65
2023-01-08T06:43:44.698Z,40.73
2023-01-08T06:46:11.288Z,40.80
2023-01-08T06:48:37.987Z,40.77
2023-01-08T06:51:05.179Z,40.72
2023-01-08T06:53:32.014Z,40.67
2023-01-08T06:55:58.913Z,40.86
2023-01-08T06:58:28.777Z,40.62
2023-01-08T07:00:55.370Z,40.53
2023-01-08T07:03:22.005Z,40.54
2023-01-08T07:05:50.705Z,40.69
2023-01-08T07:08:18.088Z,40.63
2023-01-08T07:10:45.066Z,40.52
2023-01-08T07:13:12.810Z,40.56
2023-01-08T07:15:43.163Z,40.44
2023-01-08T07:18:11.566Z,40.55
2023-01-08T07:20:38.863Z,40.52
2023-01-08T07:23:09.625Z,40.44
2023-01-08T07:25:36.226Z,40.54
2023-01-08T07:28:02.802Z,40.51
2023-01-08T07:30:30.750Z,40.28
2023-01-08T07:33:01.580Z,40.19
2023-01-08T07:35:28.556Z,40.40
2023-01-08T07:37:55.369Z,40.38
2023-01-08T07:40:21.938Z,40.46
2023-01-08T07:42:48.469Z,40.09
2023-01-08T07:45:15.028Z,40.37
2023-01-08T07:47:41.641Z,40.36
2023-01-08T07:50:08.701Z,40.26
2023-01-08T07:52:35.191Z,40.16
2023-01-08T07:55:01.781Z,40.22
2023-01-08T07:57:29.529Z,40.07
2023-01-08T07:59:57.280Z,40.03
2023-01-08T08:02:23.990Z,40.15
2023-01-08T08:04:50.687Z,40.02
2023-01-08T08:07:17.189Z,40.07
2023-01-08T08:09:43.698Z,40.15
2023-01-08T08:12:10.206Z,40.07
2023-01-08T08:14:36.729Z,39.96
2023-01-08T08:17:03.198Z,39.97
2023-01-08T08:19:29.733Z,39.97
2023-01-08T08:21:56.293Z,39.95
2023-01-08T08:24:22.795Z,39.95
2023-01-08T08:26:50.333Z,39.90
2023-01-08T08:29:17.040Z,39.85
2023-01-08T08:31:43.585Z,39.90
2023-01-08T08:34:10.126Z,39.84
2023-01-08T08:36:36.609Z,39.99
2023-01-08T08:39:04.112Z,39.91
2023-01-08T08:41:30.683Z,40.05
2023-01-08T08:43:57.228Z,39.90
2023-01-08T08:46:25.454Z,39.83
2023-01-08T08:48:52.097Z,39.88
2023-01-08T08:51:18.632Z,40.10
2023-01-08T08:53:45.151Z,39.95
2023-01-08T08:56:11.624Z,40.09
2023-01-08T08:58:38.120Z,39.99
2023-01-08T09:01:05.095Z,40.11
2023-01-08T09:03:31.803Z,39.95
2023-01-08T09:05:59.856Z,40.04
2023-01-08T09:08:26.836Z,39.94
2023-01-08T09:10:53.420Z,40.08
2023-01-08T09:13:20.110Z,40.16
2023-01-08T09:15:46.713Z,40.10
2023-01-08T09:18:15.812Z,40.12
2023-01-08T09:20:48.867Z,40.10
2023-01-08T09:23:18.017Z,40.00
2023-01-08T09:25:44.593Z,39.95
2023-01-08T09:28:12.782Z,40.08
2023-01-08T09:30:40.120Z,40.03
2023-01-08T09:33:06.692Z,40.02
2023-01-08T09:35:33.999Z,39.98
2023-01-08T09:38:00.809Z,40.01
2023-01-08T09:40:56.947Z,39.98
2023-01-08T09:43:26.019Z,40.13
2023-01-08T09:45:56.301Z,39.95
2023-01-08T09:48:28.034Z,40.13
2023-01-08T09:50:54.871Z,39.98
2023-01-08T09:53:21.509Z,40.12
2023-01-08T09:56:15.528Z,40.15
2023-01-08T09:58:52.143Z,39.99
2023-01-08T10:01:23.087Z,39.99
2023-01-08T10:04:23.229Z,40.18
2023-01-08T10:07:21.397Z,40.22
2023-01-08T10:09:52.526Z,40.14
2023-01-08T10:12:32.544Z,40.04
2023-01-08T10:15:05.478Z,40.29
2023-01-08T10:17:39.416Z,40.02
2023-01-08T10:20:22.343Z,40.24
2023-01-08T10:22:50.031Z,40.05
2023-01-08T10:25:23.883Z,40.14
2023-01-08T10:27:51.764Z,40.10
2023-01-08T10:30:35.959Z,40.04
2023-01-08T10:33:05.674Z,40.13
2023-01-08T10:35:38.861Z,40.04
2023-01-08T10:38:06.047Z,39.92
2023-01-08T10:40:45.938Z,40.01
2023-01-08T10:43:16.085Z,39.97
2023-01-08T10:45:43.940Z,40.12
2023-01-08T10:48:18.136Z,40.14
2023-01-08T10:50:44.703Z,40.07
2023-01-08T10:53:26.264Z,40.19
2023-01-08T10:56:01.107Z,40.12
2023-01-08T10:58:29.278Z,40.33
2023-01-08T11:00:57.630Z,40.37
2023-01-08T11:03:24.136Z,40.41
2023-01-08T11:05:51.294Z,40.29
2023-01-08T11:08:22.927Z,40.49
2023-01-08T11:10:55.082Z,40.55
2023-01-08T11:13:22.112Z,40.58
2023-01-08T11:15:59.627Z,40.54
2023-01-08T11:18:28.059Z,40.69
2023-01-08T11:21:08.418Z,40.75
2023-01-08T11:23:35.016Z,40.54
2023-01-08T11:26:20.635Z,40.75
2023-01-08T11:29:06.119Z,40.74
2023-01-08T11:32:07.417Z,40.88
2023-01-08T11:34:52.682Z,40.80
2023-01-08T11:37:26.320Z,41.19
2023-01-08T11:39:54.021Z,40.96
2023-01-08T11:42:29.781Z,42.50
2023-01-08T11:45:24.005Z,43.88
2023-01-08T11:48:29.762Z,44.49
2023-01-08T11:51:14.622Z,45.88
2023-01-08T11:53:59.282Z,45.09
2023-01-08T11:56:37.902Z,45.02
2023-01-08T11:59:15.105Z,44.63
2023-01-08T12:02:06.744Z,44.36
2023-01-08T12:04:51.757Z,44.23
2023-01-08T12:07:28.738Z,43.98
2023-01-08T12:10:11.903Z,44.01
2023-01-08T12:12:48.108Z,44.92
2023-01-08T12:15:20.718Z,46.01
2023-01-08T12:18:00.591Z,46.57
2023-01-08T12:20:37.986Z,45.62
2023-01-08T12:23:05.187Z,45.48
2023-01-08T12:25:52.805Z,45.13
2023-01-08T12:28:40.930Z,45.61
2023-01-08T12:31:30.532Z,45.65
2023-01-08T12:34:05.704Z,44.99
2023-01-08T12:36:46.151Z,45.28
2023-01-08T12:39:18.296Z,45.46
2023-01-08T12:41:47.610Z,45.08
2023-01-08T12:44:26.437Z,45.13
2023-01-08T12:46:55.428Z,44.89
2023-01-08T12:49:31.407Z,44.90
2023-01-08T12:52:00.908Z,44.70
2023-01-08T12:54:30.377Z,44.61
2023-01-08T12:57:13.339Z,45.00
2023-01-08T13:00:00.565Z,44.51
2023-01-08T13:02:48.407Z,44.55
2023-01-08T13:05:20.936Z,44.36
2023-01-08T13:07:56.912Z,44.42
2023-01-08T13:10:29.458Z,44.38
2023-01-08T13:12:57.607Z,44.21
2023-01-08T13:15:27.452Z,44.11
2023-01-08T13:17:55.973Z,44.04
2023-01-08T13:20:31.736Z,44.11
2023-01-08T13:23:01.109Z,43.99
2023-01-08T13:25:36.383Z,43.98
2023-01-08T13:28:35.329Z,44.04
2023-01-08T13:31:20.193Z,44.07
2023-01-08T13:33:48.747Z,43.82
2023-01-08T13:36:15.807Z,43.82
2023-01-08T13:38:43.427Z,43.93
2023-01-08T13:41:28.176Z,43.91
2023-01-08T13:44:04.284Z,43.79
2023-01-08T13:46:33.236Z,43.86
2023-01-08T13:49:08.970Z,43.87
2023-01-08T13:51:38.323Z,43.90
2023-01-08T13:54:14.372Z,43.71
2023-01-08T13:56:42.482Z,43.66
2023-01-08T13:59:24.292Z,43.65
2023-01-08T14:01:58.011Z,43.45
2023-01-08T14:04:24.817Z,43.65
2023-01-08T14:06:51.482Z,43.46
2023-01-08T14:09:23.685Z,43.55
2023-01-08T14:11:53.451Z,43.46
2023-01-08T14:14:21.829Z,43.21
2023-01-08T14:16:50.578Z,43.26
2023-01-08T14:19:21.257Z,43.20
2023-01-08T14:21:57.281Z,43.21
2023-01-08T14:24:25.597Z,42.57
2023-01-08T14:26:53.539Z,42.71
2023-01-08T14:29:23.044Z,42.71
2023-01-08T14:31:52.923Z,42.71
2023-01-08T14:34:21.318Z,42.68
2023-01-08T14:36:50.515Z,42.97
2023-01-08T14:39:25.643Z,43.08
2023-01-08T14:42:14.140Z,42.86
2023-01-08T14:44:42.570Z,42.88
2023-01-08T14:47:18.878Z,42.84
2023-01-08T14:49:51.844Z,42.76
2023-01-08T14:52:20.670Z,42.79
2023-01-08T14:54:56.232Z,42.84
2023-01-08T14:57:24.333Z,42.88
2023-01-08T15:00:00.238Z,42.79
2023-01-08T15:02:31.435Z,42.64
2023-01-08T15:05:22.193Z,42.71
2023-01-08T15:08:25.876Z,42.67
2023-01-08T15:11:01.071Z,42.61
2023-01-08T15:13:35.777Z,42.63
2023-01-08T15:16:33.312Z,42.54
2023-01-08T15:19:13.995Z,42.03
2023-01-08T15:21:47.853Z,42.07
2023-01-08T15:24:34.341Z,42.00
2023-01-08T15:27:20.303Z,42.14
2023-01-08T15:29:53.069Z,42.16
2023-01-08T15:32:24.313Z,42.01
2023-01-08T15:34:50.922Z,41.91
2023-01-08T15:37:17.538Z,41.86
2023-01-08T15:39:44.136Z,41.74
2023-01-08T15:42:40.625Z,41.90
2023-01-08T15:45:13.398Z,41.91
2023-01-08T15:47:39.939Z,41.89
2023-01-08T15:50:07.379Z,41.72
2023-01-08T15:52:35.884Z,41.46
2023-01-08T15:55:02.727Z,41.71
2023-01-08T15:57:32.356Z,41.69
2023-01-08T15:59:59.238Z,41.59
2023-01-08T16:02:25.923Z,41.71
2023-01-08T16:04:53.872Z,41.89
2023-01-08T16:07:21.166Z,41.90
2023-01-08T16:09:48.204Z,41.94
2023-01-08T16:12:15.071Z,42.15
2023-01-08T16:14:41.674Z,42.13
2023-01-08T16:17:08.937Z,42.26
2023-01-08T16:19:35.569Z,42.16
2023-01-08T16:22:02.275Z,42.31
2023-01-08T16:24:28.776Z,42.33
2023-01-08T16:26:55.445Z,42.24
2023-01-08T16:29:22.155Z,42.24
2023-01-08T16:31:48.898Z,42.42
2023-01-08T16:34:15.947Z,42.26
2023-01-08T16:36:42.803Z,42.15
2023-01-08T16:39:09.324Z,42.29
2023-01-08T16:41:36.826Z,42.43
2023-01-08T16:44:03.541Z,42.34
2023-01-08T16:46:30.180Z,42.43
2023-01-08T16:48:56.727Z,42.19
2023-01-08T16:51:25.280Z,42.12
2023-01-08T16:53:51.861Z,42.14
2023-01-08T16:56:18.415Z,42.10
2023-01-08T16:58:44.906Z,42.08
2023-01-08T17:01:12.404Z,42.14
2023-01-08T17:03:39.633Z,42.08
2023-01-08T17:06:08.388Z,42.06
2023-01-08T17:08:39.812Z,41.98
2023-01-08T17:11:08.907Z,41.95
2023-01-08T17:13:35.515Z,42.05
2023-01-08T17:16:07.508Z,41.90
2023-01-08T17:18:34.179Z,41.78
2023-01-08T17:21:00.848Z,41.51
2023-01-08T17:23:28.799Z,41.91
2023-01-08T17:25:56.773Z,41.70
2023-01-08T17:28:25.180Z,41.57
2023-01-08T17:31:01.739Z,41.76
2023-01-08T17:33:28.207Z,41.63
2023-01-08T17:35:54.755Z,41.73
2023-01-08T17:38:21.301Z,41.73
2023-01-08T17:40:47.822Z,41.79
2023-01-08T17:43:14.397Z,41.78
2023-01-08T17:45:41.205Z,41.66
2023-01-08T17:48:07.909Z,41.83
2023-01-08T17:50:34.472Z,41.73
2023-01-08T17:53:00.977Z,41.73
2023-01-08T17:55:27.517Z,41.74
2023-01-08T17:57:54.188Z,41.69
2023-01-08T18:00:21.144Z,41.75
2023-01-08T18:02:47.648Z,41.58
2023-01-08T18:05:14.340Z,41.76
2023-01-08T18:07:40.872Z,41.73
2023-01-08T18:10:08.566Z,41.69
2023-01-08T18:12:35.131Z,41.84
2023-01-08T18:15:01.779Z,41.69
2023-01-08T18:17:31.106Z,41.60
2023-01-08T18:19:57.605Z,41.47
2023-01-08T18:22:24.685Z,41.61
2023-01-08T18:24:51.236Z,41.54
2023-01-08T18:27:18.106Z,41.47
2023-01-08T18:29:44.798Z,41.46
2023-01-08T18:32:11.278Z,41.38
2023-01-08T18:34:38.989Z,41.39
2023-01-08T18:37:05.516Z,41.42
2023-01-08T18:39:32.075Z,41.37
2023-01-08T18:42:17.581Z,41.38
2023-01-08T18:44:44.090Z,41.39
2023-01-08T18:47:12.526Z,41.51
2023-01-08T18:49:39.045Z,41.41
2023-01-08T18:52:05.953Z,41.40
2023-01-08T18:54:35.042Z,41.39
2023-01-08T18:57:01.770Z,41.35
2023-01-08T18:59:28.431Z,41.39
2023-01-08T19:01:55.038Z,41.39
2023-01-08T19:04:21.631Z,41.26
2023-01-08T19:06:48.248Z,41.41
2023-01-08T19:09:15.962Z,41.23
2023-01-08T19:11:42.803Z,41.13
2023-01-08T19:14:14.087Z,41.06
2023-01-08T19:16:41.401Z,41.25
2023-01-08T19:19:07.924Z,41.25
2023-01-08T19:21:34.442Z,41.11
2023-01-08T19:24:01.255Z,41.03
2023-01-08T19:26:27.872Z,40.91
2023-01-08T19:28:54.443Z,40.96
2023-01-08T19:31:21.033Z,40.79
2023-01-08T19:33:47.632Z,40.79
2023-01-08T19:36:16.628Z,40.67
2023-01-08T19:38:44.514Z,40.66
2023-01-08T19:41:30.683Z,40.70
2023-01-08T19:43:58.461Z,40.74
2023-01-08T19:46:25.455Z,40.57
2023-01-08T19:48:52.548Z,40.59
2023-01-08T19:51:19.367Z,40.41
2023-01-08T19:53:46.035Z,40.55
2023-01-08T19:56:14.296Z,40.27
2023-01-08T19:58:41.229Z,40.27
2023-01-08T20:01:22.648Z,40.49
2023-01-08T20:03:49.359Z,40.24
2023-01-08T20:06:19.650Z,40.45
2023-01-08T20:08:47.362Z,40.16
2023-01-08T20:11:16.029Z,40.24
2023-01-08T20:13:43.194Z,40.18
2023-01-08T20:16:14.404Z,40.21
2023-01-08T20:18:41.153Z,40.11
2023-01-08T20:21:24.026Z,40.15
2023-01-08T20:23:59.228Z,40.20
2023-01-08T20:26:27.716Z,40.05
2023-01-08T20:28:56.338Z,40.14
2023-01-08T20:31:26.243Z,40.17
2023-01-08T20:33:53.133Z,39.96
2023-01-08T20:36:22.219Z,40.12
2023-01-08T20:38:54.368Z,40.01
2023-01-08T20:41:21.191Z,40.14
2023-01-08T20:43:48.073Z,40.19
2023-01-08T20:46:15.073Z,40.15
2023-01-08T20:48:47.473Z,40.13
2023-01-08T20:51:15.018Z,40.16
2023-01-08T20:56:11.849Z,40.17
2023-01-08T20:58:41.083Z,40.28
2023-01-08T21:01:24.848Z,40.18
2023-01-08T21:03:55.606Z,40.10
2023-01-08T21:06:24.098Z,40.18
2023-01-08T21:08:54.854Z,40.17
2023-01-08T21:11:22.149Z,40.70
2023-01-08T21:13:49.346Z,40.34
2023-01-08T21:16:19.567Z,40.40
2023-01-08T21:18:48.132Z,40.27
2023-01-08T21:21:17.595Z,40.43
2023-01-08T21:23:45.399Z,40.45
2023-01-08T21:26:12.614Z,40.52
2023-01-08T21:28:40.844Z,40.52
2023-01-08T21:31:16.988Z,40.48
2023-01-08T21:33:44.905Z,40.61
2023-01-08T21:36:15.712Z,40.52
2023-01-08T21:38:42.404Z,40.35
2023-01-08T21:41:11.404Z,40.52
2023-01-08T21:43:56.596Z,40.55
2023-01-08T21:46:28.060Z,40.53
2023-01-08T21:48:54.638Z,40.40
2023-01-08T21:51:39.732Z,40.41
2023-01-08T21:54:06.342Z,40.25
2023-01-08T21:56:33.300Z,40.33
2023-01-08T21:58:59.943Z,40.23
2023-01-08T22:01:26.516Z,40.28
2023-01-08T22:03:53.395Z,40.51
2023-01-08T22:06:19.961Z,40.25
2023-01-08T22:08:51.205Z,40.22
2023-01-08T22:11:17.749Z,40.12
2023-01-08T22:13:44.269Z,40.13
2023-01-08T22:16:12.177Z,40.06
2023-01-08T22:18:38.832Z,40.03
2023-01-08T22:21:10.696Z,39.83
2023-01-08T22:23:37.877Z,39.86
2023-01-08T22:26:10.032Z,39.96
2023-01-08T22:28:40.402Z,39.95
2023-01-08T22:31:09.223Z,39.83
2023-01-08T22:33:36.728Z,39.78
2023-01-08T22:36:08.076Z,39.95
2023-01-08T22:38:35.523Z,39.70
2023-01-08T22:41:02.263Z,39.85
2023-01-08T22:43:28.779Z,39.64
2023-01-08T22:45:58.305Z,39.62
2023-01-08T22:48:25.932Z,39.72
2023-01-08T22:50:53.194Z,39.83
2023-01-08T22:53:20.475Z,39.49
2023-01-08T22:55:48.313Z,39.75
2023-01-08T22:58:16.590Z,39.71
2023-01-08T23:00:44.304Z,39.62
2023-01-08T23:03:10.981Z,39.63
2023-01-08T23:05:37.647Z,39.53
2023-01-08T23:08:04.275Z,39.68
2023-01-08T23:10:31.168Z,39.64
2023-01-08T23:12:57.701Z,39.61
2023-01-08T23:15:25.012Z,39.46
2023-01-08T23:17:52.851Z,39.39
2023-01-08T23:20:20.802Z,39.45
2023-01-08T23:22:48.668Z,39.40
2023-01-08T23:25:16.059Z,39.47
2023-01-08T23:27:44.137Z,39.43
2023-01-08T23:30:11.328Z,39.48
2023-01-08T23:32:37.823Z,39.42
2023-01-08T23:35:04.637Z,39.24
2023-01-08T23:37:31.134Z,39.45
2023-01-08T23:39:57.632Z,39.29
2023-01-08T23:42:24.125Z,39.26
2023-01-08T23:44:50.641Z,39.31
2023-01-08T23:47:17.242Z,39.24
2023-01-08T23:49:43.831Z,39.39
2023-01-08T23:52:10.327Z,39.23
2023-01-08T23:54:36.903Z,39.34
2023-01-08T23:57:06.127Z,39.46
2023-01-08T23:59:32.737Z,39.51
